Time;durP1;ratioP1;P1;durP2;ratioP2;P2;SDS_P1;SDS_P2;PMS_P1;PMS_P2;Temp;Humidity;BMP_temperature;BMP_pressure;BME280_temperature;BME280_humidity;BME280_pressure;Samples;Min_cycle;Max_cycle;Signal;HPM_P1;HPM_P2
2021/10/04 00:02:30;;;;;;;2.63;1.50;;;20.10;36.60;;;;;;10425729;28;20227;-74
2021/10/04 00:07:36;;;;;;;1.60;1.50;;;20.10;36.60;;;;;;10429207;28;20244;-74
2021/10/04 00:12:40;;;;;;;1.90;1.80;;;20.00;36.50;;;;;;10426863;28;20732;-74
2021/10/04 00:17:43;;;;;;;1.43;1.40;;;20.00;36.50;;;;;;10423845;28;20220;-74
2021/10/04 00:22:49;;;;;;;1.50;1.40;;;20.00;36.50;;;;;;10423863;28;20305;-74
2021/10/04 00:27:52;;;;;;;1.50;1.40;;;20.00;36.50;;;;;;10426787;28;20230;-74
2021/10/04 00:32:56;;;;;;;1.60;1.30;;;19.90;36.40;;;;;;10426850;28;20619;-74
2021/10/04 00:38:00;;;;;;;1.70;1.60;;;19.80;36.30;;;;;;10423292;28;20228;-74
2021/10/04 00:43:04;;;;;;;1.53;1.43;;;19.80;36.30;;;;;;10428861;28;20225;-75
2021/10/04 00:48:07;;;;;;;1.57;1.47;;;19.70;36.30;;;;;;10426583;28;20232;-75
2021/10/04 00:53:12;;;;;;;1.60;1.50;;;19.60;36.20;;;;;;10421101;28;20271;-75
2021/10/04 00:58:15;;;;;;;1.43;1.33;;;19.60;36.50;;;;;;10431291;28;20233;-74
2021/10/04 01:03:18;;;;;;;1.53;1.43;;;19.60;36.20;;;;;;10426924;28;20235;-74
2021/10/04 01:08:23;;;;;;;1.57;1.47;;;19.50;36.30;;;;;;10422698;28;20232;-74
2021/10/04 01:13:26;;;;;;;1.60;1.50;;;19.40;36.70;;;;;;10422349;28;20240;-74
2021/10/04 01:18:29;;;;;;;1.70;1.60;;;19.40;36.50;;;;;;10428629;28;20235;-74
2021/10/04 01:23:34;;;;;;;1.60;1.50;;;19.30;36.50;;;;;;10428683;28;20236;-74
2021/10/04 01:28:37;;;;;;;2.20;1.60;;;19.30;37.00;;;;;;10419793;28;20232;-74
2021/10/04 01:33:40;;;;;;;1.57;1.40;;;19.20;36.70;;;;;;10421405;28;20220;-74
2021/10/04 01:38:45;;;;;;;1.87;1.73;;;19.20;36.80;;;;;;10423758;28;20223;-74
2021/10/04 01:43:49;;;;;;;1.77;1.40;;;19.10;37.20;;;;;;10426774;28;20217;-74
2021/10/04 01:48:52;;;;;;;1.87;1.63;;;19.10;37.00;;;;;;10418803;28;20236;-74
2021/10/04 01:53:57;;;;;;;1.60;1.50;;;19.10;37.10;;;;;;10423289;28;20233;-74
2021/10/04 01:59:00;;;;;;;1.77;1.67;;;19.10;37.40;;;;;;10424033;28;20228;-74
2021/10/04 02:04:03;;;;;;;1.57;1.47;;;19.10;37.20;;;;;;10424528;28;20240;-74
2021/10/04 02:09:08;;;;;;;1.70;1.60;;;19.00;37.10;;;;;;10420005;28;20741;-74
2021/10/04 02:14:11;;;;;;;1.77;1.67;;;18.90;37.40;;;;;;10434078;28;20233;-74
2021/10/04 02:19:14;;;;;;;2.10;1.90;;;18.90;37.20;;;;;;10437095;28;20225;-74
2021/10/04 02:24:19;;;;;;;1.90;1.80;;;18.80;37.40;;;;;;10438003;28;20239;-74
2021/10/04 02:29:23;;;;;;;2.30;1.90;;;18.70;37.70;;;;;;10430963;28;20245;-74
2021/10/04 02:34:26;;;;;;;1.80;1.70;;;18.70;37.60;;;;;;10440040;28;20236;-74
2021/10/04 02:39:30;;;;;;;1.70;1.60;;;18.70;37.60;;;;;;10437814;28;20617;-74
2021/10/04 02:44:34;;;;;;;1.80;1.70;;;18.70;38.00;;;;;;10436459;28;20233;-74
2021/10/04 02:49:38;;;;;;;1.57;1.47;;;18.70;38.00;;;;;;10435355;28;20229;-74
2021/10/04 02:54:42;;;;;;;1.87;1.77;;;18.70;37.70;;;;;;10432468;28;20225;-74
2021/10/04 02:59:45;;;;;;;2.10;1.90;;;18.60;38.00;;;;;;10438603;28;20582;-74
2021/10/04 03:04:48;;;;;;;2.10;1.90;;;18.60;37.90;;;;;;10435660;28;20221;-74
2021/10/04 03:09:53;;;;;;;2.00;1.90;;;18.50;37.80;;;;;;10437611;28;20243;-74
2021/10/04 03:14:58;;;;;;;2.20;2.00;;;18.50;38.20;;;;;;10430111;28;20237;-74
2021/10/04 03:20:01;;;;;;;1.90;1.80;;;18.40;37.90;;;;;;10436503;28;20221;-74
2021/10/04 03:25:06;;;;;;;1.90;1.80;;;18.40;37.80;;;;;;10423975;28;20240;-74
2021/10/04 03:30:11;;;;;;;1.70;1.60;;;18.40;38.20;;;;;;10436747;28;20235;-74
2021/10/04 03:35:14;;;;;;;1.70;1.60;;;18.30;37.90;;;;;;10431430;28;20247;-74
2021/10/04 03:40:19;;;;;;;3.17;1.53;;;18.20;37.80;;;;;;10429769;28;20252;-75
2021/10/04 03:45:23;;;;;;;1.63;1.50;;;18.20;38.30;;;;;;10427354;28;20237;-74
2021/10/04 03:50:26;;;;;;;1.77;1.67;;;18.10;38.10;;;;;;10432487;28;20588;-74
2021/10/04 03:55:31;;;;;;;2.20;1.47;;;18.10;38.30;;;;;;10435386;28;20274;-74
2021/10/04 04:00:35;;;;;;;1.67;1.50;;;18.10;38.80;;;;;;10427152;28;20256;-75
2021/10/04 04:05:38;;;;;;;1.60;1.50;;;18.10;38.40;;;;;;10421698;28;20228;-74
2021/10/04 04:10:43;;;;;;;1.87;1.73;;;18.00;38.40;;;;;;10429263;28;20263;-74
2021/10/04 04:15:46;;;;;;;1.83;1.73;;;18.00;38.90;;;;;;10428494;28;20601;-74
2021/10/04 04:20:49;;;;;;;1.80;1.70;;;18.00;38.50;;;;;;10431023;28;20906;-74
2021/10/04 04:25:54;;;;;;;1.80;1.70;;;18.00;38.70;;;;;;10427973;28;20221;-74
2021/10/04 04:30:57;;;;;;;2.07;1.90;;;18.00;38.90;;;;;;10428471;28;20316;-75
2021/10/04 04:36:00;;;;;;;1.80;1.70;;;18.00;38.80;;;;;;10423806;28;20694;-74
2021/10/04 04:41:05;;;;;;;1.73;1.63;;;18.00;38.80;;;;;;10426870;28;20580;-75
2021/10/04 04:46:08;;;;;;;2.03;1.70;;;18.00;39.10;;;;;;10427410;28;20243;-75
2021/10/04 04:51:11;;;;;;;1.67;1.57;;;18.00;38.80;;;;;;10429180;28;20220;-74
2021/10/04 04:56:16;;;;;;;3.63;1.70;;;18.00;38.90;;;;;;10421414;28;20232;-74
2021/10/04 05:01:19;;;;;;;1.70;1.60;;;18.00;39.20;;;;;;10423373;28;20248;-75
2021/10/04 05:06:22;;;;;;;1.47;1.37;;;17.90;38.80;;;;;;10426433;28;20332;-75
2021/10/04 05:11:29;;;;;;;1.80;1.70;;;17.90;38.90;;;;;;10431033;28;20224;-74
2021/10/04 05:16:33;;;;;;;1.63;1.53;;;17.80;39.30;;;;;;10424886;28;21210;-75
2021/10/04 05:21:36;;;;;;;1.50;1.40;;;17.80;39.10;;;;;;10424245;28;20226;-75
2021/10/04 05:26:41;;;;;;;2.70;1.60;;;17.90;39.30;;;;;;10427005;28;20225;-75
2021/10/04 05:31:44;;;;;;;1.50;1.40;;;17.90;39.70;;;;;;10426264;28;20737;-75
2021/10/04 05:36:48;;;;;;;1.67;1.57;;;17.90;39.40;;;;;;10427651;28;20237;-75
2021/10/04 05:41:52;;;;;;;1.50;1.40;;;17.90;39.40;;;;;;10425520;28;20229;-75
2021/10/04 05:46:55;;;;;;;1.97;1.50;;;17.90;39.70;;;;;;10423856;28;20343;-74
2021/10/04 05:51:59;;;;;;;1.57;1.47;;;17.80;39.40;;;;;;10427778;28;20279;-75
2021/10/04 05:57:04;;;;;;;1.60;1.50;;;17.80;39.50;;;;;;10426435;28;20463;-75
2021/10/04 06:02:07;;;;;;;1.40;1.30;;;17.80;40.00;;;;;;10424104;28;20219;-75
2021/10/04 06:07:10;;;;;;;1.20;1.20;;;17.70;39.60;;;;;;10426212;28;20233;-75
2021/10/04 06:12:15;;;;;;;1.60;1.50;;;17.80;39.70;;;;;;10429012;28;20241;-75
2021/10/04 06:17:18;;;;;;;1.60;1.50;;;17.80;40.20;;;;;;10427089;28;20236;-75
2021/10/04 06:22:22;;;;;;;1.50;1.40;;;17.90;40.00;;;;;;10426629;28;20228;-75
2021/10/04 06:27:26;;;;;;;2.60;1.50;;;17.90;39.90;;;;;;10429995;28;20236;-75
2021/10/04 06:32:30;;;;;;;1.27;1.17;;;17.90;40.30;;;;;;10425352;28;20237;-74
2021/10/04 06:37:33;;;;;;;2.23;1.33;;;18.00;39.90;;;;;;10430072;28;20217;-75
2021/10/04 06:42:38;;;;;;;1.40;1.30;;;18.00;40.10;;;;;;10423294;28;20245;-75
2021/10/04 06:47:41;;;;;;;2.00;1.40;;;18.00;40.40;;;;;;10425900;28;20240;-75
2021/10/04 06:52:44;;;;;;;1.27;1.17;;;18.00;40.20;;;;;;10422804;28;20739;-75
2021/10/04 06:57:49;;;;;;;1.80;1.20;;;18.00;40.20;;;;;;10423139;28;20236;-74
2021/10/04 07:02:54;;;;;;;2.17;1.27;;;18.00;40.70;;;;;;10431952;28;20236;-75
2021/10/04 07:07:57;;;;;;;1.17;1.13;;;18.00;40.70;;;;;;10431559;28;20221;-75
2021/10/04 07:13:02;;;;;;;1.13;1.03;;;18.00;40.50;;;;;;10429207;28;20221;-75
2021/10/04 07:18:05;;;;;;;0.90;0.90;;;18.10;40.70;;;;;;10436759;28;20240;-76
2021/10/04 07:23:09;;;;;;;1.60;1.20;;;18.10;40.40;;;;;;10431227;28;20226;-76
2021/10/04 07:28:13;;;;;;;2.33;1.00;;;18.10;40.70;;;;;;10431696;28;20224;-75
2021/10/04 07:33:16;;;;;;;1.10;1.10;;;18.10;41.10;;;;;;10430815;28;20238;-75
2021/10/04 07:38:20;;;;;;;1.00;1.00;;;18.20;40.60;;;;;;10434032;28;20217;-75
2021/10/04 07:43:25;;;;;;;0.90;0.90;;;18.20;40.60;;;;;;10426703;28;20252;-75
2021/10/04 07:48:28;;;;;;;1.00;1.00;;;18.20;40.90;;;;;;10435796;28;20232;-75
2021/10/04 07:53:32;;;;;;;0.97;0.93;;;18.30;40.70;;;;;;10434264;28;20716;-75
2021/10/04 07:58:36;;;;;;;1.20;1.10;;;18.30;40.70;;;;;;10432742;28;20240;-74
2021/10/04 08:03:40;;;;;;;1.10;1.10;;;18.30;40.90;;;;;;10426729;28;20269;-75
2021/10/04 08:08:43;;;;;;;1.27;1.17;;;18.40;40.70;;;;;;10424464;28;20398;-75
2021/10/04 08:13:50;;;;;;;2.13;1.20;;;18.40;40.60;;;;;;10422754;28;20259;-74
2021/10/04 08:18:54;;;;;;;1.10;1.00;;;18.40;40.70;;;;;;10430096;28;20346;-75
2021/10/04 08:23:59;;;;;;;2.30;1.10;;;18.50;40.60;;;;;;10430332;28;20240;-74
2021/10/04 08:29:04;;;;;;;1.33;1.10;;;18.50;40.50;;;;;;10429164;28;20240;-76
2021/10/04 08:34:07;;;;;;;3.30;1.10;;;18.50;40.60;;;;;;10427107;28;20611;-75
2021/10/04 08:39:10;;;;;;;1.70;0.90;;;18.50;40.30;;;;;;10425221;28;20233;-74
2021/10/04 08:44:16;;;;;;;1.40;0.90;;;18.50;40.30;;;;;;10461749;23;20236;-75
2021/10/04 08:49:20;;;;;;;1.40;1.13;;;18.40;40.40;;;;;;10471786;28;20228;-75
2021/10/04 08:54:25;;;;;;;1.10;1.00;;;18.50;40.30;;;;;;10473537;28;20232;-75
2021/10/04 08:59:32;;;;;;;1.73;1.00;;;18.50;40.40;;;;;;10467211;28;20249;-75
2021/10/04 09:04:35;;;;;;;1.17;1.00;;;18.50;40.50;;;;;;10473395;28;20246;-75
2021/10/04 09:09:53;;;;;;;1.33;1.20;;;18.50;40.30;;;;;;10465903;28;20755;-75
2021/10/04 09:14:57;;;;;;;1.33;1.20;;;18.50;40.90;;;;;;10469886;28;20228;-75
2021/10/04 09:20:02;;;;;;;1.20;1.07;;;18.50;40.40;;;;;;10467755;28;20231;-75
2021/10/04 09:25:07;;;;;;;1.00;1.00;;;18.50;40.30;;;;;;10463596;28;20228;-75
2021/10/04 09:30:15;;;;;;;1.00;1.00;;;18.50;40.20;;;;;;10467911;28;20232;-75
2021/10/04 09:35:24;;;;;;;1.20;1.20;;;18.50;40.30;;;;;;10468127;28;20243;-75
2021/10/04 09:40:34;;;;;;;1.10;1.10;;;18.50;40.40;;;;;;10470601;28;20225;-75
2021/10/04 09:45:39;;;;;;;1.30;1.30;;;18.60;40.30;;;;;;10472919;28;20312;-75
2021/10/04 09:50:43;;;;;;;1.33;1.20;;;18.60;40.40;;;;;;10468860;28;20247;-75
2021/10/04 09:55:48;;;;;;;2.70;1.30;;;18.50;40.40;;;;;;10465480;28;20223;-75
2021/10/04 10:00:54;;;;;;;1.40;1.30;;;18.50;40.70;;;;;;10470081;28;20259;-75
2021/10/04 10:05:59;;;;;;;1.93;1.40;;;18.50;40.80;;;;;;10459599;28;20220;-75
2021/10/04 10:11:06;;;;;;;1.73;1.30;;;18.50;40.70;;;;;;10468640;28;20591;-76
2021/10/04 10:16:15;;;;;;;1.33;1.13;;;18.50;40.90;;;;;;10465761;28;20244;-75
2021/10/04 10:21:20;;;;;;;1.57;1.47;;;18.40;40.90;;;;;;10465714;28;20224;-74
2021/10/04 10:26:33;;;;;;;1.30;1.30;;;18.40;40.60;;;;;;10465815;28;20227;-75
2021/10/04 10:32:09;;;;;;;1.63;1.20;;;18.40;40.80;;;;;;10467435;28;20239;-74
2021/10/04 10:37:16;;;;;;;1.20;1.00;;;18.40;40.80;;;;;;10471335;28;20439;-74
2021/10/04 10:42:21;;;;;;;1.07;1.07;;;18.30;40.40;;;;;;10469765;28;20224;-74
2021/10/04 10:47:55;;;;;;;2.47;0.90;;;18.30;40.70;;;;;;10468209;28;20282;-74
2021/10/04 10:53:20;;;;;;;0.80;0.80;;;18.20;40.90;;;;;;10467851;28;20232;-75
2021/10/04 10:58:25;;;;;;;0.80;0.80;;;18.20;40.90;;;;;;10470721;28;20692;-75
2021/10/04 11:03:29;;;;;;;0.57;0.53;;;18.20;40.60;;;;;;10464094;28;20282;-75
2021/10/04 11:08:56;;;;;;;0.80;0.80;;;18.20;40.40;;;;;;10468085;28;20220;-75
2021/10/04 11:14:07;;;;;;;0.70;0.70;;;18.20;40.40;;;;;;10472585;28;20243;-75
2021/10/04 11:19:22;;;;;;;0.70;0.70;;;18.20;40.30;;;;;;10473474;28;20232;-75
2021/10/04 11:24:27;;;;;;;0.63;0.60;;;18.30;40.30;;;;;;10471368;28;20243;-74
2021/10/04 11:29:31;;;;;;;0.80;0.80;;;18.30;40.20;;;;;;10472696;28;21352;-75
2021/10/04 11:34:34;;;;;;;1.23;0.83;;;18.30;40.00;;;;;;10470231;28;20231;-75
2021/10/04 11:39:43;;;;;;;1.53;0.77;;;18.40;40.20;;;;;;10474052;28;20217;-75
2021/10/04 11:44:46;;;;;;;0.90;0.90;;;18.40;40.10;;;;;;10468730;28;20232;-75
2021/10/04 11:49:52;;;;;;;0.70;0.70;;;18.40;40.00;;;;;;10474409;28;20227;-75
2021/10/04 11:54:57;;;;;;;0.80;0.80;;;18.40;40.00;;;;;;10472935;28;20227;-74
2021/10/04 12:00:07;;;;;;;0.83;0.70;;;18.30;39.80;;;;;;10472420;28;20592;-76
2021/10/04 12:05:17;;;;;;;0.60;0.60;;;18.40;39.80;;;;;;10469834;28;20232;-76
2021/10/04 12:10:22;;;;;;;0.70;0.70;;;18.40;39.60;;;;;;10471723;28;20236;-75
2021/10/04 12:15:28;;;;;;;0.80;0.80;;;18.40;39.50;;;;;;10475485;28;20311;-75
2021/10/04 12:20:31;;;;;;;1.00;0.70;;;18.40;39.30;;;;;;10468688;28;20248;-76
2021/10/04 12:25:36;;;;;;;0.60;0.60;;;18.50;39.60;;;;;;10466779;28;20235;-76
2021/10/04 12:30:44;;;;;;;0.60;0.60;;;18.50;39.70;;;;;;10468236;28;20220;-76
2021/10/04 12:35:49;;;;;;;0.70;0.70;;;18.50;39.60;;;;;;10470310;28;20231;-75
2021/10/04 12:41:02;;;;;;;0.60;0.60;;;18.50;39.20;;;;;;10460544;28;20738;-75
2021/10/04 12:46:07;;;;;;;2.37;0.70;;;18.40;39.30;;;;;;10467295;28;20235;-75
2021/10/04 12:51:13;;;;;;;0.60;0.60;;;18.40;39.60;;;;;;10466483;28;20715;-76
2021/10/04 12:56:22;;;;;;;0.60;0.60;;;18.40;39.50;;;;;;10465048;28;20224;-75
2021/10/04 13:01:26;;;;;;;0.77;0.70;;;18.50;39.30;;;;;;10466763;28;20804;-75
2021/10/04 13:06:31;;;;;;;0.70;0.70;;;18.50;39.30;;;;;;10462956;28;20228;-75
2021/10/04 13:11:37;;;;;;;0.70;0.70;;;18.50;39.20;;;;;;10450503;28;20228;-76
2021/10/04 13:16:41;;;;;;;1.20;0.70;;;18.50;39.10;;;;;;10468796;28;20685;-75
2021/10/04 13:21:45;;;;;;;0.70;0.70;;;18.50;39.00;;;;;;10466305;28;20604;-76
2021/10/04 13:26:49;;;;;;;0.60;0.60;;;18.50;39.10;;;;;;10417126;22;20228;-75
2021/10/04 13:31:53;;;;;;;0.77;0.70;;;18.50;39.10;;;;;;10400139;28;20224;-76
2021/10/04 13:36:57;;;;;;;0.50;0.50;;;18.60;39.20;;;;;;10398914;28;20218;-74
2021/10/04 13:42:01;;;;;;;0.87;0.60;;;18.60;39.20;;;;;;10402932;28;20233;-75
2021/10/04 13:47:05;;;;;;;0.60;0.60;;;18.70;39.10;;;;;;10391923;28;20238;-75
2021/10/04 13:52:08;;;;;;;0.70;0.70;;;18.70;39.10;;;;;;10391785;28;20226;-78
2021/10/04 13:57:13;;;;;;;2.00;0.87;;;18.70;38.90;;;;;;10402676;28;20311;-76
2021/10/04 14:02:16;;;;;;;0.90;0.77;;;18.70;38.80;;;;;;10399484;28;20217;-76
2021/10/04 14:07:20;;;;;;;0.60;0.60;;;18.70;39.10;;;;;;10391699;28;20235;-74
2021/10/04 14:12:25;;;;;;;0.93;0.70;;;18.70;39.10;;;;;;10397694;28;20249;-76
2021/10/04 14:17:28;;;;;;;0.80;0.60;;;18.70;39.10;;;;;;10395970;28;20226;-74
2021/10/04 14:22:31;;;;;;;0.60;0.60;;;18.70;39.10;;;;;;10402133;28;20226;-75
2021/10/04 14:27:39;;;;;;;0.53;0.53;;;18.80;39.20;;;;;;10402269;28;20234;-76
2021/10/04 14:32:43;;;;;;;0.50;0.50;;;18.90;39.00;;;;;;10398511;28;20225;-77
2021/10/04 14:37:46;;;;;;;0.57;0.57;;;18.90;38.80;;;;;;10403022;28;20226;-77
2021/10/04 14:42:52;;;;;;;1.63;0.70;;;18.90;39.00;;;;;;10386468;28;20231;-76
2021/10/04 14:47:55;;;;;;;0.70;0.70;;;18.90;38.80;;;;;;10399855;28;20241;-75
2021/10/04 14:52:58;;;;;;;0.97;0.70;;;18.90;38.90;;;;;;10399765;28;20322;-75
2021/10/04 14:58:03;;;;;;;0.60;0.60;;;19.00;39.00;;;;;;10388987;28;20230;-75
2021/10/04 15:03:06;;;;;;;0.60;0.60;;;19.00;39.10;;;;;;10395335;28;20911;-74
2021/10/04 15:08:10;;;;;;;1.03;0.70;;;19.10;39.10;;;;;;10392552;28;20230;-75
2021/10/04 15:13:14;;;;;;;0.80;0.80;;;19.10;39.10;;;;;;10389671;28;20237;-76
2021/10/04 15:18:17;;;;;;;0.60;0.60;;;19.20;39.00;;;;;;10399414;28;20311;-75
2021/10/04 15:23:21;;;;;;;0.90;0.70;;;19.30;39.00;;;;;;10414762;28;20236;-77
2021/10/04 15:28:25;;;;;;;0.80;0.80;;;19.40;38.90;;;;;;10410756;28;20229;-76
2021/10/04 15:33:28;;;;;;;2.63;0.83;;;19.50;38.90;;;;;;10406902;28;20234;-76
2021/10/04 15:38:32;;;;;;;1.20;0.70;;;19.50;38.90;;;;;;10402290;28;20222;-75
2021/10/04 15:43:38;;;;;;;0.60;0.60;;;19.60;39.00;;;;;;10405037;28;20245;-73
2021/10/04 15:48:41;;;;;;;0.80;0.80;;;19.60;39.10;;;;;;10407278;28;20226;-76
2021/10/04 15:53:45;;;;;;;5.90;3.97;;;19.60;39.00;;;;;;10395131;28;20229;-77
2021/10/04 15:58:49;;;;;;;8.23;4.63;;;19.70;39.20;;;;;;10395906;28;20228;-77
2021/10/04 16:03:52;;;;;;;7.90;5.00;;;19.70;39.20;;;;;;10411112;28;20233;-77
2021/10/04 16:08:56;;;;;;;7.80;4.50;;;19.70;39.30;;;;;;10398286;28;20241;-76
2021/10/04 16:14:02;;;;;;;4.17;2.90;;;19.70;39.30;;;;;;10406476;28;20233;-76
2021/10/04 16:19:05;;;;;;;3.50;2.67;;;19.70;39.30;;;;;;10405136;28;20230;-77
2021/10/04 16:24:12;;;;;;;8.60;5.17;;;19.70;39.20;;;;;;10407434;28;20237;-76
2021/10/04 16:29:16;;;;;;;6.57;3.83;;;19.70;39.10;;;;;;10393500;28;20234;-76
2021/10/04 16:34:19;;;;;;;6.00;3.00;;;19.60;39.10;;;;;;10390031;28;20253;-76
2021/10/04 16:39:23;;;;;;;2.10;1.80;;;19.60;39.10;;;;;;10389553;28;20236;-76
2021/10/04 16:44:28;;;;;;;1.73;1.50;;;19.60;39.30;;;;;;10391419;28;20230;-76
2021/10/04 16:49:32;;;;;;;1.83;1.10;;;19.50;39.40;;;;;;10388870;28;20279;-75
2021/10/04 16:54:36;;;;;;;0.80;0.80;;;19.50;39.30;;;;;;10393878;28;20237;-76
2021/10/04 16:59:40;;;;;;;0.80;0.80;;;19.50;39.40;;;;;;10405208;28;20719;-76
2021/10/04 17:04:43;;;;;;;0.90;0.90;;;19.40;39.50;;;;;;10411845;28;20225;-77
2021/10/04 17:09:47;;;;;;;0.87;0.87;;;19.40;39.40;;;;;;10403806;28;20229;-77
2021/10/04 17:14:51;;;;;;;1.00;0.93;;;19.40;39.50;;;;;;10402566;28;20237;-76
2021/10/04 17:19:55;;;;;;;1.37;0.83;;;19.40;39.60;;;;;;10396434;28;20603;-75
2021/10/04 17:24:58;;;;;;;2.10;1.33;;;19.30;39.30;;;;;;10391770;28;20969;-75
2021/10/04 17:30:02;;;;;;;1.23;1.03;;;19.30;39.30;;;;;;10401979;28;20229;-75
2021/10/04 17:35:07;;;;;;;1.20;1.10;;;19.20;39.30;;;;;;10402260;28;20236;-75
2021/10/04 17:40:13;;;;;;;1.20;1.00;;;19.10;39.30;;;;;;10394248;28;20234;-75
2021/10/04 17:45:18;;;;;;;1.10;1.10;;;19.00;39.30;;;;;;10387376;28;20234;-74
2021/10/04 17:50:21;;;;;;;1.73;0.93;;;18.90;39.40;;;;;;10390571;28;20237;-74
2021/10/04 17:55:24;;;;;;;1.10;1.10;;;18.90;39.30;;;;;;10397269;28;20594;-75
2021/10/04 18:00:29;;;;;;;1.50;1.20;;;18.70;39.20;;;;;;10395264;28;20721;-75
2021/10/04 18:05:32;;;;;;;2.00;1.20;;;18.60;39.30;;;;;;10391288;28;20305;-75
2021/10/04 18:10:36;;;;;;;1.27;1.17;;;18.50;39.20;;;;;;10389704;28;20221;-74
2021/10/04 18:15:43;;;;;;;1.30;1.20;;;18.40;39.20;;;;;;10388538;28;20733;-74
2021/10/04 18:20:48;;;;;;;2.00;1.67;;;18.30;39.50;;;;;;10389676;28;20235;-74
2021/10/04 18:25:51;;;;;;;1.80;1.53;;;18.30;39.60;;;;;;10387863;28;20557;-74
2021/10/04 18:30:55;;;;;;;2.13;1.93;;;18.10;39.50;;;;;;10391185;28;20218;-74
2021/10/04 18:35:59;;;;;;;1.83;1.73;;;18.10;39.70;;;;;;10393273;28;20322;-74
2021/10/04 18:41:02;;;;;;;2.23;2.03;;;18.00;39.60;;;;;;10398448;28;20321;-74
2021/10/04 18:46:07;;;;;;;2.10;1.90;;;18.00;39.60;;;;;;10390709;28;20241;-75
2021/10/04 18:51:11;;;;;;;2.10;1.90;;;17.90;39.90;;;;;;10401816;28;20304;-74
2021/10/04 18:56:14;;;;;;;1.70;1.60;;;17.90;39.80;;;;;;10400346;28;20241;-74
2021/10/04 19:01:19;;;;;;;1.63;1.53;;;17.80;39.80;;;;;;10403648;28;20791;-74
2021/10/04 19:06:23;;;;;;;1.63;1.53;;;17.80;40.30;;;;;;10398042;28;20308;-75
2021/10/04 19:11:26;;;;;;;1.60;1.50;;;17.80;40.10;;;;;;10405109;28;20240;-76
2021/10/04 19:16:30;;;;;;;2.00;1.90;;;17.70;39.90;;;;;;10399164;28;20283;-75
2021/10/04 19:21:34;;;;;;;2.33;2.10;;;17.70;40.30;;;;;;10396836;28;20317;-78
2021/10/04 19:26:39;;;;;;;2.20;2.10;;;17.60;40.10;;;;;;10399405;28;20610;-75
2021/10/04 19:31:44;;;;;;;2.43;2.23;;;17.50;40.50;;;;;;10412592;28;20599;-73
2021/10/04 19:36:47;;;;;;;2.70;2.50;;;17.60;40.60;;;;;;10411349;28;20226;-73
2021/10/04 19:41:50;;;;;;;2.70;2.50;;;17.50;40.20;;;;;;10405810;28;20245;-72
2021/10/04 19:46:55;;;;;;;2.60;2.30;;;17.50;40.20;;;;;;10402940;28;20232;-74
2021/10/04 19:51:59;;;;;;;2.40;2.23;;;17.40;40.40;;;;;;10403307;28;20218;-74
2021/10/04 19:57:06;;;;;;;2.20;2.00;;;17.40;40.40;;;;;;10420458;28;20229;-74
2021/10/04 20:02:10;;;;;;;2.50;1.90;;;17.40;40.50;;;;;;10410932;28;20253;-74
2021/10/04 20:07:14;;;;;;;2.40;2.20;;;17.40;40.40;;;;;;10414003;28;20242;-74
2021/10/04 20:12:18;;;;;;;1.97;1.87;;;17.30;40.30;;;;;;10421888;28;20232;-74
2021/10/04 20:17:22;;;;;;;1.70;1.60;;;17.30;40.40;;;;;;10409873;28;20225;-73
2021/10/04 20:22:26;;;;;;;2.00;1.90;;;17.30;40.50;;;;;;10403515;28;20725;-77
2021/10/04 20:27:30;;;;;;;2.07;1.73;;;17.20;40.30;;;;;;10399339;28;20226;-73
2021/10/04 20:32:35;;;;;;;1.83;1.73;;;17.20;40.50;;;;;;10418347;28;20256;-73
2021/10/04 20:37:38;;;;;;;1.60;1.50;;;17.10;40.60;;;;;;10403865;28;20237;-74
2021/10/04 20:42:42;;;;;;;1.90;1.80;;;17.10;40.40;;;;;;10391625;28;20221;-74
2021/10/04 20:47:46;;;;;;;2.60;2.10;;;17.10;40.60;;;;;;10392286;28;20245;-74
2021/10/04 20:52:50;;;;;;;1.63;1.53;;;17.00;40.70;;;;;;10389287;28;20251;-74
2021/10/04 20:57:54;;;;;;;3.10;2.17;;;17.00;40.60;;;;;;10391019;28;20229;-73
2021/10/04 21:02:59;;;;;;;2.37;2.17;;;17.00;40.70;;;;;;10393455;28;20229;-74
2021/10/04 21:08:03;;;;;;;2.43;2.23;;;16.90;41.00;;;;;;10395120;28;20234;-74
2021/10/04 21:13:07;;;;;;;2.37;2.23;;;16.80;40.90;;;;;;10394140;28;20222;-74
2021/10/04 21:18:12;;;;;;;2.50;2.30;;;16.80;41.00;;;;;;10398982;28;20229;-74
2021/10/04 21:23:16;;;;;;;2.53;2.33;;;16.80;41.40;;;;;;10403609;28;20225;-74
2021/10/04 21:28:36;;;;;;;2.83;2.40;;;16.80;41.20;;;;;;10403518;28;20225;-74
2021/10/04 21:33:41;;;;;;;2.30;2.20;;;16.80;41.30;;;;;;10396716;28;20243;-74
2021/10/04 21:38:44;;;;;;;2.53;2.33;;;16.80;41.70;;;;;;10391380;28;20221;-74
2021/10/04 21:43:48;;;;;;;2.50;2.40;;;16.80;41.40;;;;;;10399850;28;20235;-74
2021/10/04 21:48:52;;;;;;;2.40;2.20;;;16.80;41.40;;;;;;10404234;28;20227;-73
2021/10/04 21:53:56;;;;;;;2.60;2.40;;;16.80;41.60;;;;;;10395708;28;20236;-74
2021/10/04 21:59:01;;;;;;;2.80;2.60;;;16.80;41.40;;;;;;10396241;28;20222;-74
2021/10/04 22:04:12;;;;;;;2.90;2.70;;;16.80;41.40;;;;;;10398984;28;20276;-74
2021/10/04 22:14:35;;;;;;;3.10;2.80;;;16.80;41.70;;;;;;10401941;28;20248;-74
2021/10/04 22:19:40;;;;;;;3.33;3.03;;;16.80;41.60;;;;;;10402325;28;20231;-74
2021/10/04 22:24:43;;;;;;;3.37;3.10;;;16.80;42.00;;;;;;10401944;28;20709;-74
2021/10/04 22:29:48;;;;;;;3.23;2.87;;;16.80;41.60;;;;;;10399703;28;20221;-73
2021/10/04 22:34:52;;;;;;;3.30;3.00;;;16.80;41.70;;;;;;10400670;28;20236;-74
2021/10/04 22:39:56;;;;;;;3.37;3.17;;;16.70;41.90;;;;;;10415673;28;20662;-74
2021/10/04 22:44:59;;;;;;;3.00;2.80;;;16.70;41.60;;;;;;10410006;28;20225;-73
2021/10/04 22:50:04;;;;;;;3.13;2.93;;;16.70;41.70;;;;;;10408985;28;20226;-74
2021/10/04 22:55:08;;;;;;;2.90;2.70;;;16.60;42.20;;;;;;10411526;28;20225;-74
2021/10/04 23:00:13;;;;;;;2.93;2.67;;;16.60;41.90;;;;;;10408992;28;20226;-73
2021/10/04 23:05:17;;;;;;;4.80;2.90;;;16.60;42.00;;;;;;10411896;28;20239;-73
2021/10/04 23:10:21;;;;;;;3.20;3.00;;;16.50;42.00;;;;;;10404505;28;20244;-73
2021/10/04 23:15:24;;;;;;;3.00;2.80;;;16.50;41.70;;;;;;10401016;28;20240;-74
2021/10/04 23:20:29;;;;;;;3.00;2.80;;;16.40;41.90;;;;;;10411472;28;20225;-74
2021/10/04 23:25:32;;;;;;;3.03;2.83;;;16.40;42.30;;;;;;10396355;28;20236;-74
2021/10/04 23:30:35;;;;;;;3.20;3.00;;;16.30;42.10;;;;;;10399854;28;20716;-74
2021/10/04 23:35:40;;;;;;;3.10;2.90;;;16.30;42.20;;;;;;10417606;28;20234;-74
2021/10/04 23:40:43;;;;;;;2.93;2.73;;;16.30;42.60;;;;;;10400402;28;20764;-73
2021/10/04 23:45:47;;;;;;;3.27;3.00;;;16.30;42.40;;;;;;10409604;28;20252;-74
2021/10/04 23:50:51;;;;;;;2.83;2.63;;;16.30;42.40;;;;;;10406934;28;20308;-73
2021/10/04 23:55:55;;;;;;;3.03;2.83;;;16.30;42.80;;;;;;10404252;28;20306;-73
